Time;durP1;ratioP1;P1;durP2;ratioP2;P2;SDS_P1;SDS_P2;PMS_P1;PMS_P2;Temp;Humidity;BMP_temperature;BMP_pressure;BME280_temperature;BME280_humidity;BME280_pressure;Samples;Min_cycle;Max_cycle;Signal;HPM_P1;HPM_P2
2023/11/22 00:01:22;;;;;;;6.60;5.15;;;9.00;79.60;;;;;;4950651;29;20404;-75
2023/11/22 00:03:50;;;;;;;6.65;5.32;;;9.00;79.60;;;;;;4953111;29;20039;-76
2023/11/22 00:06:16;;;;;;;6.70;5.03;;;9.00;79.60;;;;;;4953279;29;20065;-75
2023/11/22 00:08:41;;;;;;;6.43;5.22;;;8.90;79.60;;;;;;4936754;29;20640;-76
2023/11/22 00:11:07;;;;;;;7.22;5.65;;;8.90;79.60;;;;;;4948579;29;20133;-76
2023/11/22 00:13:33;;;;;;;7.55;6.07;;;8.90;79.60;;;;;;4946953;29;20106;-75
2023/11/22 00:15:58;;;;;;;6.97;5.47;;;8.90;79.50;;;;;;4931122;29;20038;-75
2023/11/22 00:18:26;;;;;;;6.95;5.10;;;8.90;79.50;;;;;;4952292;29;20090;-75
2023/11/22 00:20:51;;;;;;;7.03;5.80;;;8.90;79.60;;;;;;4934981;29;20035;-75
2023/11/22 00:23:17;;;;;;;6.60;5.35;;;8.90;79.60;;;;;;4953408;29;20086;-75
2023/11/22 00:25:43;;;;;;;7.30;5.32;;;8.80;79.60;;;;;;4953769;29;20050;-76
2023/11/22 00:28:08;;;;;;;6.70;5.25;;;8.80;79.60;;;;;;4948345;29;20031;-76
2023/11/22 00:30:34;;;;;;;7.15;5.93;;;8.80;79.50;;;;;;4945983;29;20063;-76
2023/11/22 00:33:00;;;;;;;6.80;5.45;;;8.80;79.60;;;;;;4953726;29;20043;-75
2023/11/22 00:35:25;;;;;;;6.18;5.10;;;8.80;79.60;;;;;;4954064;29;20427;-76
2023/11/22 00:37:51;;;;;;;6.57;5.43;;;8.80;79.60;;;;;;4932336;29;20028;-75
2023/11/22 00:40:17;;;;;;;6.97;5.30;;;8.80;79.60;;;;;;4937562;29;20038;-75
2023/11/22 00:42:43;;;;;;;6.88;5.45;;;8.80;79.60;;;;;;4952034;29;20036;-76
2023/11/22 00:45:10;;;;;;;7.00;5.47;;;8.70;79.50;;;;;;4951199;29;20043;-76
2023/11/22 00:47:37;;;;;;;6.60;5.00;;;8.70;79.50;;;;;;4946109;29;20023;-75
2023/11/22 00:50:04;;;;;;;6.13;4.88;;;8.70;79.50;;;;;;4935947;29;20447;-76
2023/11/22 00:52:30;;;;;;;6.60;5.68;;;8.70;79.50;;;;;;4943597;29;20479;-76
2023/11/22 00:54:56;;;;;;;6.72;5.05;;;8.70;79.60;;;;;;4946713;29;20035;-76
2023/11/22 00:57:23;;;;;;;6.95;5.43;;;8.70;79.60;;;;;;4948383;29;20028;-76
2023/11/22 00:59:49;;;;;;;6.95;5.28;;;8.60;79.50;;;;;;4941194;29;20059;-76
2023/11/22 01:02:15;;;;;;;7.13;5.53;;;8.60;79.50;;;;;;4947398;29;20039;-76
2023/11/22 01:04:41;;;;;;;6.75;5.43;;;8.60;80.10;;;;;;4933737;29;20122;-76
2023/11/22 01:07:07;;;;;;;7.20;5.47;;;8.60;79.50;;;;;;4937463;29;20055;-76
2023/11/22 01:09:33;;;;;;;7.60;5.60;;;8.60;79.50;;;;;;4953054;29;20042;-76
2023/11/22 01:11:59;;;;;;;6.57;4.95;;;8.60;79.60;;;;;;4952935;29;20118;-76
2023/11/22 01:14:29;;;;;;;6.32;5.32;;;8.60;79.60;;;;;;4953195;29;20387;-76
2023/11/22 01:16:55;;;;;;;7.30;5.40;;;8.50;79.50;;;;;;4956094;29;20058;-76
2023/11/22 01:19:21;;;;;;;6.15;4.93;;;8.50;79.50;;;;;;4948072;29;20502;-76
2023/11/22 01:21:47;;;;;;;7.30;5.22;;;8.50;79.50;;;;;;4960443;29;20156;-76
2023/11/22 01:24:13;;;;;;;6.90;5.63;;;8.50;79.60;;;;;;4956987;29;20031;-76
2023/11/22 01:26:39;;;;;;;7.07;5.32;;;8.50;79.50;;;;;;4939663;29;20027;-76
2023/11/22 01:29:05;;;;;;;6.70;4.90;;;8.50;79.60;;;;;;4953975;29;20039;-76
2023/11/22 01:31:32;;;;;;;7.63;5.90;;;8.50;79.60;;;;;;4937733;29;20035;-75
2023/11/22 01:33:58;;;;;;;6.63;5.22;;;8.40;79.50;;;;;;4946014;29;20055;-76
2023/11/22 01:36:25;;;;;;;7.10;5.30;;;8.40;79.50;;;;;;4928998;29;20050;-76
2023/11/22 01:38:52;;;;;;;6.57;5.18;;;8.50;79.60;;;;;;4945320;29;20137;-76
2023/11/22 01:41:18;;;;;;;6.65;5.40;;;8.40;79.60;;;;;;4945712;29;20618;-76
2023/11/22 01:43:43;;;;;;;7.57;5.63;;;8.40;79.50;;;;;;4946569;29;20027;-76
2023/11/22 01:46:14;;;;;;;7.25;5.50;;;8.40;79.50;;;;;;4947963;29;20065;-76
2023/11/22 01:48:40;;;;;;;7.30;5.50;;;8.40;79.50;;;;;;4930917;29;20027;-76
2023/11/22 01:51:08;;;;;;;6.95;5.47;;;8.30;79.50;;;;;;4929828;29;20385;-76
2023/11/22 01:53:34;;;;;;;7.13;5.57;;;8.40;79.60;;;;;;4931718;29;20035;-76
2023/11/22 01:56:01;;;;;;;6.85;5.10;;;8.30;79.50;;;;;;4929567;29;20394;-77
2023/11/22 01:58:27;;;;;;;5.72;4.45;;;8.30;79.50;;;;;;4928392;29;20036;-77
2023/11/22 02:00:53;;;;;;;6.90;5.40;;;8.30;79.50;;;;;;4944985;29;20696;-76
2023/11/22 02:03:19;;;;;;;6.07;4.82;;;8.30;80.10;;;;;;4916842;29;20031;-76
2023/11/22 02:05:45;;;;;;;6.70;5.45;;;8.30;79.50;;;;;;4930428;29;20087;-76
2023/11/22 02:08:12;;;;;;;7.18;5.30;;;8.30;79.50;;;;;;4946667;29;20527;-76
2023/11/22 02:10:38;;;;;;;6.25;4.85;;;8.30;79.50;;;;;;4929510;29;20056;-76
2023/11/22 02:13:08;;;;;;;6.63;5.35;;;8.30;79.50;;;;;;4929425;29;20066;-76
2023/11/22 02:15:35;;;;;;;7.53;4.90;;;8.30;79.60;;;;;;4946988;28;20516;-76
2023/11/22 02:18:02;;;;;;;6.32;5.00;;;8.20;79.50;;;;;;4951461;29;20472;-76
2023/11/22 02:20:30;;;;;;;6.47;4.95;;;8.20;80.20;;;;;;4954597;28;20035;-76
2023/11/22 02:22:56;;;;;;;7.28;5.53;;;8.20;79.50;;;;;;4951603;29;20031;-76
2023/11/22 02:25:22;;;;;;;6.18;4.88;;;8.20;79.50;;;;;;4936114;29;20028;-76
2023/11/22 02:27:48;;;;;;;6.50;4.85;;;8.20;79.50;;;;;;4953548;28;20114;-76
2023/11/22 02:30:15;;;;;;;6.70;5.07;;;8.20;79.60;;;;;;4935350;29;20131;-76
2023/11/22 02:32:41;;;;;;;6.00;4.80;;;8.10;79.50;;;;;;4937821;29;20039;-76
2023/11/22 02:35:07;;;;;;;6.55;4.90;;;8.10;79.50;;;;;;4904308;29;20027;-76
2023/11/22 02:37:36;;;;;;;6.97;4.95;;;8.10;79.50;;;;;;4938076;29;20051;-76
2023/11/22 02:40:19;;;;;;;7.53;5.68;;;8.10;79.50;;;;;;4951846;29;20048;-76
2023/11/22 02:42:47;;;;;;;6.63;4.97;;;8.10;79.50;;;;;;4954223;29;20110;-76
2023/11/22 02:45:13;;;;;;;6.53;4.68;;;8.10;79.50;;;;;;4953215;28;20103;-75
2023/11/22 02:47:39;;;;;;;6.82;5.25;;;8.10;79.50;;;;;;4935676;29;20031;-76
2023/11/22 02:50:05;;;;;;;7.20;5.57;;;8.00;79.50;;;;;;4936976;29;20043;-76
2023/11/22 02:52:32;;;;;;;6.35;4.75;;;8.10;79.50;;;;;;4937541;29;20090;-76
2023/11/22 02:54:59;;;;;;;7.65;5.15;;;8.00;79.50;;;;;;4953590;29;20039;-76
2023/11/22 02:57:26;;;;;;;6.75;4.60;;;8.00;79.50;;;;;;4953780;28;20061;-76
2023/11/22 02:59:52;;;;;;;6.53;5.00;;;8.00;79.50;;;;;;4936894;29;20361;-76
2023/11/22 03:02:18;;;;;;;6.28;5.05;;;8.00;79.50;;;;;;4918755;29;20031;-76
2023/11/22 03:04:43;;;;;;;6.95;5.28;;;8.00;79.50;;;;;;4933156;29;20048;-76
2023/11/22 03:07:10;;;;;;;5.78;4.35;;;7.90;79.40;;;;;;4954673;29;20027;-75
2023/11/22 03:09:36;;;;;;;6.78;4.93;;;7.90;79.40;;;;;;4942362;29;20034;-75
2023/11/22 03:12:02;;;;;;;6.90;4.75;;;7.90;79.50;;;;;;4936980;29;20052;-75
2023/11/22 03:14:29;;;;;;;6.45;4.88;;;7.90;79.40;;;;;;4952520;28;20476;-76
2023/11/22 03:16:55;;;;;;;6.72;5.00;;;7.90;79.40;;;;;;4937841;29;20459;-76
2023/11/22 03:19:21;;;;;;;6.75;4.78;;;7.90;79.50;;;;;;4933017;29;20031;-76
2023/11/22 03:21:46;;;;;;;6.65;4.65;;;7.90;80.10;;;;;;4952817;29;20063;-77
2023/11/22 03:24:12;;;;;;;7.30;5.13;;;7.90;79.50;;;;;;4953174;28;20043;-76
2023/11/22 03:26:39;;;;;;;6.95;5.03;;;7.90;79.50;;;;;;4935942;29;20027;-76
2023/11/22 03:29:05;;;;;;;6.75;4.88;;;7.80;79.40;;;;;;4950182;28;20039;-76
2023/11/22 03:31:31;;;;;;;6.50;5.47;;;7.80;79.40;;;;;;4950363;29;20569;-76
2023/11/22 03:33:57;;;;;;;7.05;5.28;;;7.80;79.50;;;;;;4908209;29;20054;-76
2023/11/22 03:36:23;;;;;;;7.03;5.25;;;7.80;79.40;;;;;;4948942;29;20118;-76
2023/11/22 03:38:50;;;;;;;6.50;5.03;;;7.80;79.50;;;;;;4954230;29;20042;-76
2023/11/22 03:41:19;;;;;;;6.95;5.10;;;7.70;79.40;;;;;;4946630;29;20063;-76
2023/11/22 03:43:45;;;;;;;7.53;5.57;;;7.80;79.50;;;;;;4948487;29;20027;-76
2023/11/22 03:46:11;;;;;;;6.45;4.97;;;7.70;79.40;;;;;;4950180;29;20393;-76
2023/11/22 03:48:39;;;;;;;6.68;5.20;;;7.70;80.10;;;;;;4930623;29;20397;-76
2023/11/22 03:51:05;;;;;;;6.88;5.32;;;7.70;79.50;;;;;;4949552;29;20031;-76
2023/11/22 03:53:32;;;;;;;7.75;5.70;;;7.70;79.50;;;;;;4949170;29;20039;-75
2023/11/22 03:55:58;;;;;;;6.88;5.40;;;7.70;79.50;;;;;;4951954;29;20027;-76
2023/11/22 03:58:24;;;;;;;5.78;4.40;;;7.60;79.40;;;;;;4949808;29;20374;-75
2023/11/22 04:00:52;;;;;;;6.57;5.10;;;7.70;79.50;;;;;;4933685;29;20492;-75
2023/11/22 04:03:18;;;;;;;7.10;5.32;;;7.70;79.50;;;;;;4952501;29;20115;-76
2023/11/22 04:05:44;;;;;;;6.55;4.60;;;7.70;79.50;;;;;;4936021;29;20027;-76
2023/11/22 04:08:10;;;;;;;7.18;5.45;;;7.60;79.40;;;;;;4954243;29;20039;-76
2023/11/22 04:10:36;;;;;;;7.63;5.60;;;7.60;79.50;;;;;;4952436;29;20043;-75
2023/11/22 04:13:02;;;;;;;7.25;4.72;;;7.60;79.50;;;;;;4951712;29;20034;-75
2023/11/22 04:15:28;;;;;;;7.65;5.45;;;7.60;79.50;;;;;;4947405;29;20131;-76
2023/11/22 04:17:54;;;;;;;7.18;5.15;;;7.60;79.50;;;;;;4938367;29;20031;-75
2023/11/22 04:20:20;;;;;;;6.68;5.15;;;7.60;79.50;;;;;;4955385;29;20114;-76
2023/11/22 04:22:46;;;;;;;7.75;5.10;;;7.60;79.50;;;;;;4935655;29;20183;-75
2023/11/22 04:25:15;;;;;;;6.75;5.05;;;7.50;79.40;;;;;;4937570;29;20039;-76
2023/11/22 04:27:41;;;;;;;7.22;5.30;;;7.50;79.40;;;;;;4922532;29;20063;-76
2023/11/22 04:30:09;;;;;;;6.97;5.07;;;7.60;79.50;;;;;;4950372;29;20042;-75
2023/11/22 04:32:38;;;;;;;8.13;5.25;;;7.50;79.50;;;;;;4933507;29;20035;-76
2023/11/22 04:35:04;;;;;;;6.88;5.22;;;7.50;79.50;;;;;;4952529;29;20050;-76
2023/11/22 04:37:32;;;;;;;7.80;5.68;;;7.50;79.50;;;;;;4949756;29;20043;-76
2023/11/22 04:40:07;;;;;;;6.88;5.05;;;7.50;79.40;;;;;;4946164;28;20042;-76
2023/11/22 04:42:34;;;;;;;7.75;5.28;;;7.50;79.50;;;;;;4931312;29;20038;-75
2023/11/22 04:45:00;;;;;;;7.30;4.88;;;7.40;79.40;;;;;;4935894;29;20463;-75
2023/11/22 04:47:25;;;;;;;7.60;5.53;;;7.40;79.40;;;;;;4952767;29;20023;-75
2023/11/22 04:49:51;;;;;;;7.88;5.50;;;7.40;79.40;;;;;;4918115;29;20031;-75
2023/11/22 04:52:17;;;;;;;7.85;5.32;;;7.40;79.50;;;;;;4951527;29;20041;-75
2023/11/22 04:54:42;;;;;;;6.40;4.88;;;7.40;79.40;;;;;;4951610;29;20027;-75
2023/11/22 04:57:08;;;;;;;7.20;5.10;;;7.40;79.40;;;;;;4950927;29;20495;-75
2023/11/22 04:59:34;;;;;;;7.50;5.40;;;7.40;79.40;;;;;;4934785;29;20416;-75
2023/11/22 05:02:00;;;;;;;7.30;5.78;;;7.40;79.40;;;;;;4949966;29;20039;-75
2023/11/22 05:04:26;;;;;;;6.45;4.97;;;7.30;79.30;;;;;;4942807;29;20099;-75
2023/11/22 05:06:53;;;;;;;7.13;5.63;;;7.30;79.40;;;;;;4932344;29;20032;-76
2023/11/22 05:09:19;;;;;;;6.60;5.00;;;7.30;79.40;;;;;;4946660;29;20395;-76
2023/11/22 05:11:45;;;;;;;7.80;5.43;;;7.30;79.30;;;;;;4897613;29;20519;-76
2023/11/22 05:14:13;;;;;;;7.78;5.30;;;7.30;79.30;;;;;;4943421;29;20380;-75
2023/11/22 05:16:38;;;;;;;7.32;5.25;;;7.30;79.30;;;;;;4949714;29;20065;-76
2023/11/22 05:19:05;;;;;;;6.78;5.25;;;7.30;79.40;;;;;;4926299;29;20472;-76
2023/11/22 05:21:32;;;;;;;7.30;5.07;;;7.30;80.00;;;;;;4931367;29;20881;-76
2023/11/22 05:23:58;;;;;;;7.68;5.72;;;7.20;79.30;;;;;;4952068;29;20031;-76
2023/11/22 05:26:24;;;;;;;6.68;4.95;;;7.20;79.30;;;;;;4947136;28;20039;-76
2023/11/22 05:28:50;;;;;;;7.05;4.82;;;7.20;79.30;;;;;;4936149;29;20369;-76
2023/11/22 05:31:16;;;;;;;7.10;5.03;;;7.20;79.30;;;;;;4952634;28;20058;-76
2023/11/22 05:33:42;;;;;;;7.20;5.00;;;7.20;79.30;;;;;;4952019;29;20096;-76
2023/11/22 05:36:08;;;;;;;6.85;5.32;;;7.20;79.30;;;;;;4951875;29;20035;-76
2023/11/22 05:38:34;;;;;;;7.25;5.13;;;7.10;79.30;;;;;;4951825;29;20070;-75
2023/11/22 05:41:02;;;;;;;6.72;5.00;;;7.20;79.30;;;;;;4952035;28;20491;-76
2023/11/22 05:43:28;;;;;;;6.88;5.43;;;7.10;79.30;;;;;;4952287;29;20046;-76
2023/11/22 05:45:54;;;;;;;7.45;5.20;;;7.10;79.30;;;;;;4947905;29;20031;-76
2023/11/22 05:48:20;;;;;;;8.73;5.57;;;7.10;79.30;;;;;;4916910;29;20042;-76
2023/11/22 05:50:47;;;;;;;7.25;5.20;;;7.10;79.30;;;;;;4948401;28;20031;-76
2023/11/22 05:53:18;;;;;;;7.45;5.30;;;7.00;79.20;;;;;;4951112;29;20083;-76
2023/11/22 05:55:47;;;;;;;8.02;5.88;;;7.00;79.30;;;;;;4935025;29;20027;-75
2023/11/22 05:58:16;;;;;;;7.28;5.20;;;7.00;79.30;;;;;;4930421;29;20055;-75
2023/11/22 06:00:43;;;;;;;7.13;5.40;;;7.00;79.30;;;;;;4913534;29;20177;-76
2023/11/22 06:03:09;;;;;;;7.70;5.78;;;7.00;79.30;;;;;;4932426;29;20054;-76
2023/11/22 06:05:35;;;;;;;8.38;5.65;;;7.00;79.30;;;;;;4949659;29;20090;-76
2023/11/22 06:08:01;;;;;;;7.05;5.38;;;7.00;79.30;;;;;;4948805;29;20034;-75
2023/11/22 06:10:27;;;;;;;6.85;4.93;;;7.00;79.30;;;;;;4919084;29;20047;-76
2023/11/22 06:12:52;;;;;;;7.68;5.65;;;6.90;79.20;;;;;;4950741;29;20078;-76
2023/11/22 06:15:20;;;;;;;7.20;5.35;;;7.00;79.30;;;;;;4949615;29;20543;-78
2023/11/22 06:17:48;;;;;;;6.70;4.82;;;6.90;79.20;;;;;;4943451;28;20131;-76
2023/11/22 06:20:14;;;;;;;7.22;5.43;;;6.90;79.20;;;;;;4931523;29;20500;-76
2023/11/22 06:22:42;;;;;;;7.85;5.30;;;6.90;79.20;;;;;;4919155;29;20118;-76
2023/11/22 06:25:12;;;;;;;7.47;5.32;;;6.90;79.30;;;;;;4948670;29;20031;-77
2023/11/22 06:27:38;;;;;;;7.32;5.55;;;6.90;79.20;;;;;;4929542;29;20134;-76
2023/11/22 06:30:06;;;;;;;7.80;5.15;;;6.90;79.20;;;;;;4949848;29;20031;-75
2023/11/22 06:32:32;;;;;;;6.97;5.38;;;6.90;79.20;;;;;;4933100;29;20421;-75
2023/11/22 06:34:58;;;;;;;7.95;5.60;;;6.90;79.30;;;;;;4933155;29;20035;-76
2023/11/22 06:37:24;;;;;;;6.53;4.75;;;6.90;79.20;;;;;;4918923;29;20123;-77
2023/11/22 06:39:50;;;;;;;7.65;5.57;;;6.90;79.20;;;;;;4932648;29;20039;-80
2023/11/22 06:42:16;;;;;;;8.00;5.65;;;6.80;79.20;;;;;;4951733;29;20050;-77
2023/11/22 06:44:42;;;;;;;6.80;5.05;;;6.80;79.20;;;;;;4930922;29;20023;-76
2023/11/22 06:47:08;;;;;;;7.18;5.25;;;6.80;79.20;;;;;;4936102;29;20098;-76
2023/11/22 06:49:34;;;;;;;7.53;5.65;;;6.80;79.20;;;;;;4950311;29;20480;-76
2023/11/22 06:52:00;;;;;;;7.85;5.28;;;6.80;79.20;;;;;;4946023;29;20056;-78
2023/11/22 06:54:26;;;;;;;6.38;5.32;;;6.80;79.20;;;;;;4935401;29;20067;-78
2023/11/22 06:56:52;;;;;;;7.80;5.45;;;6.80;79.20;;;;;;4935454;29;20055;-76
2023/11/22 06:59:18;;;;;;;7.93;5.70;;;6.80;79.20;;;;;;4943691;29;20071;-76
2023/11/22 07:01:45;;;;;;;8.30;5.60;;;6.80;79.20;;;;;;4946004;28;20032;-76
2023/11/22 07:04:11;;;;;;;7.38;5.60;;;6.80;79.20;;;;;;4947353;29;20063;-78
2023/11/22 07:06:37;;;;;;;7.03;5.22;;;6.80;79.20;;;;;;4952409;29;20070;-76
2023/11/22 07:09:04;;;;;;;7.53;5.40;;;6.80;79.20;;;;;;4954675;29;20034;-76
2023/11/22 07:11:31;;;;;;;6.80;5.03;;;6.80;79.20;;;;;;4937253;29;20133;-77
2023/11/22 07:13:57;;;;;;;7.22;5.32;;;6.80;79.30;;;;;;4937814;29;20031;-77
2023/11/22 07:16:24;;;;;;;7.50;5.22;;;6.80;79.20;;;;;;4954789;29;20082;-76
2023/11/22 07:18:50;;;;;;;6.50;4.93;;;6.70;79.20;;;;;;4955942;29;20118;-76
2023/11/22 07:21:20;;;;;;;7.55;5.35;;;6.80;79.20;;;;;;4938814;29;20492;-76
2023/11/22 07:23:47;;;;;;;7.57;5.60;;;6.80;79.30;;;;;;4955966;29;20082;-76
2023/11/22 07:26:15;;;;;;;6.57;4.85;;;6.70;79.20;;;;;;4939090;29;20059;-76
2023/11/22 07:28:41;;;;;;;7.68;5.72;;;6.80;79.30;;;;;;4954813;29;20043;-77
2023/11/22 07:31:09;;;;;;;8.18;5.55;;;6.70;79.20;;;;;;4954898;29;20130;-77
2023/11/22 07:33:35;;;;;;;8.45;5.68;;;6.70;79.20;;;;;;4954506;29;20027;-76
2023/11/22 07:36:02;;;;;;;7.85;5.50;;;6.70;79.20;;;;;;4938910;29;20077;-75
2023/11/22 07:38:29;;;;;;;7.75;5.40;;;6.70;79.20;;;;;;4953083;29;20031;-76
2023/11/22 07:40:56;;;;;;;8.07;5.63;;;6.70;79.20;;;;;;4956247;29;20035;-75
2023/11/22 07:43:22;;;;;;;6.80;4.95;;;6.70;79.20;;;;;;4938479;29;20042;-76
2023/11/22 07:45:48;;;;;;;7.30;5.35;;;6.70;79.20;;;;;;4937277;29;20039;-76
2023/11/22 07:48:14;;;;;;;6.82;5.40;;;6.70;79.20;;;;;;4954002;29;20039;-75
2023/11/22 07:50:43;;;;;;;7.93;5.68;;;6.70;79.20;;;;;;4954096;29;20050;-75
2023/11/22 07:53:11;;;;;;;7.13;5.20;;;6.70;79.20;;;;;;4952332;29;20070;-76
2023/11/22 07:55:38;;;;;;;7.60;5.65;;;6.70;79.20;;;;;;4955610;28;20484;-75
2023/11/22 07:58:06;;;;;;;6.75;5.25;;;6.70;79.20;;;;;;4938531;29;20062;-75
2023/11/22 08:00:33;;;;;;;7.82;5.15;;;6.70;79.20;;;;;;4951139;29;20122;-75
2023/11/22 08:03:02;;;;;;;7.55;5.80;;;6.70;79.20;;;;;;4938728;29;20428;-75
2023/11/22 08:05:29;;;;;;;7.97;6.15;;;6.70;79.20;;;;;;4954024;29;20054;-75
2023/11/22 08:07:55;;;;;;;7.35;5.63;;;6.70;79.20;;;;;;4948500;29;20074;-75
2023/11/22 08:10:20;;;;;;;7.47;5.55;;;6.70;79.20;;;;;;4933258;29;20480;-75
2023/11/22 08:12:49;;;;;;;7.65;5.32;;;6.70;79.20;;;;;;4950743;29;20058;-75
2023/11/22 08:15:16;;;;;;;7.82;5.68;;;6.70;79.20;;;;;;4936702;29;20404;-75
2023/11/22 08:17:45;;;;;;;9.15;5.60;;;6.70;79.20;;;;;;4938012;29;20041;-76
2023/11/22 08:20:13;;;;;;;8.88;6.00;;;6.70;79.20;;;;;;4955614;29;20035;-75
2023/11/22 08:22:41;;;;;;;6.82;5.10;;;6.70;79.20;;;;;;4946159;29;20035;-77
2023/11/22 08:25:12;;;;;;;7.28;5.40;;;6.70;79.20;;;;;;4934582;29;20034;-76
2023/11/22 08:27:39;;;;;;;7.03;5.68;;;6.70;79.20;;;;;;4946390;29;20032;-76
2023/11/22 08:30:05;;;;;;;7.57;5.60;;;6.70;79.20;;;;;;4937605;29;20032;-75
2023/11/22 08:32:31;;;;;;;8.57;6.40;;;6.70;79.20;;;;;;4949958;28;20031;-74
2023/11/22 08:34:57;;;;;;;7.63;5.82;;;6.70;79.20;;;;;;4946295;29;20036;-74
2023/11/22 08:37:24;;;;;;;7.40;5.68;;;6.80;79.30;;;;;;4950028;29;20058;-75
2023/11/22 08:39:49;;;;;;;8.05;5.78;;;6.80;79.30;;;;;;4946246;29;20031;-74
2023/11/22 08:42:15;;;;;;;7.68;5.82;;;6.80;79.30;;;;;;4951085;28;20094;-73
2023/11/22 08:44:41;;;;;;;8.68;6.15;;;6.80;79.30;;;;;;4954748;28;20038;-73
2023/11/22 08:47:08;;;;;;;8.48;6.40;;;6.80;79.20;;;;;;4954187;29;20038;-73
2023/11/22 08:49:34;;;;;;;8.40;6.20;;;6.80;79.30;;;;;;4954166;29;20058;-74
2023/11/22 08:52:02;;;;;;;7.35;5.88;;;6.80;79.20;;;;;;4953873;29;20110;-74
2023/11/22 08:54:29;;;;;;;8.00;5.85;;;6.80;79.20;;;;;;4954826;29;20043;-75
2023/11/22 08:57:00;;;;;;;8.48;6.20;;;6.80;79.30;;;;;;4954548;29;20101;-74
2023/11/22 08:59:26;;;;;;;7.95;6.00;;;6.80;79.20;;;;;;4954159;29;20039;-73
2023/11/22 09:01:52;;;;;;;7.90;5.95;;;6.90;79.30;;;;;;4946420;29;20423;-74
2023/11/22 09:04:18;;;;;;;8.68;6.93;;;6.90;79.20;;;;;;4953820;29;20042;-74
2023/11/22 09:06:44;;;;;;;9.10;6.82;;;6.90;79.20;;;;;;4948585;29;20031;-73
2023/11/22 09:09:15;;;;;;;8.43;6.38;;;6.90;79.30;;;;;;4929710;29;20083;-74
2023/11/22 09:11:41;;;;;;;8.68;6.53;;;6.90;79.30;;;;;;4948945;29;20070;-74
2023/11/22 09:14:10;;;;;;;8.93;6.40;;;6.90;79.20;;;;;;4938357;29;20039;-74
2023/11/22 09:16:38;;;;;;;8.70;6.57;;;6.90;79.20;;;;;;4932655;29;20028;-73
2023/11/22 09:19:06;;;;;;;8.32;6.38;;;6.90;79.20;;;;;;4955004;28;20051;-74
2023/11/22 09:21:32;;;;;;;8.57;6.07;;;7.00;79.30;;;;;;4930716;29;20046;-74
2023/11/22 09:23:58;;;;;;;8.40;6.30;;;7.00;79.30;;;;;;4941027;29;20101;-74
2023/11/22 09:26:24;;;;;;;8.82;6.65;;;7.00;79.30;;;;;;4956770;28;20546;-73
2023/11/22 09:28:50;;;;;;;9.48;6.90;;;7.00;79.30;;;;;;4955394;29;20039;-74
2023/11/22 09:31:20;;;;;;;8.55;6.40;;;7.10;79.30;;;;;;4954257;28;20028;-73
2023/11/22 09:33:46;;;;;;;8.25;6.30;;;7.10;79.30;;;;;;4944037;29;20488;-73
2023/11/22 09:36:13;;;;;;;9.27;6.78;;;7.10;79.30;;;;;;4931057;29;20101;-73
2023/11/22 09:38:39;;;;;;;8.70;6.75;;;7.10;79.30;;;;;;4952784;29;20090;-73
2023/11/22 09:41:07;;;;;;;8.88;6.70;;;7.10;79.30;;;;;;4937246;29;20059;-73
2023/11/22 09:43:33;;;;;;;9.45;7.15;;;7.20;79.30;;;;;;4952467;29;20042;-74
2023/11/22 09:46:00;;;;;;;8.98;6.70;;;7.20;79.30;;;;;;4953142;29;20031;-73
2023/11/22 09:48:27;;;;;;;8.98;6.75;;;7.20;79.30;;;;;;4952541;29;20035;-73
2023/11/22 09:51:09;;;;;;;8.40;6.65;;;7.20;79.30;;;;;;4952669;29;20487;-72
2023/11/22 09:53:54;;;;;;;9.25;6.57;;;7.20;79.30;;;;;;4952374;28;20483;-73
2023/11/22 09:56:20;;;;;;;9.10;6.47;;;7.30;79.50;;;;;;4946729;29;20492;-73
2023/11/22 09:58:51;;;;;;;11.25;6.55;;;7.30;79.30;;;;;;4952412;29;20031;-73
2023/11/22 10:01:17;;;;;;;9.35;6.15;;;7.30;79.30;;;;;;4948896;29;20042;-73
2023/11/22 10:03:43;;;;;;;9.55;7.18;;;7.30;79.30;;;;;;4905193;29;20031;-73
2023/11/22 10:06:08;;;;;;;8.90;6.78;;;7.30;79.30;;;;;;4936555;29;20031;-73
2023/11/22 10:08:36;;;;;;;9.65;7.30;;;7.30;79.30;;;;;;4945232;29;20039;-74
2023/11/22 10:11:04;;;;;;;9.00;7.00;;;7.40;79.30;;;;;;4912939;29;20060;-73
2023/11/22 10:13:29;;;;;;;9.25;7.10;;;7.40;79.30;;;;;;4952748;29;20395;-73
2023/11/22 10:15:55;;;;;;;9.05;6.88;;;7.40;79.30;;;;;;4951818;29;20031;-74
2023/11/22 10:18:21;;;;;;;9.05;6.55;;;7.40;79.30;;;;;;4944630;29;20035;-73
2023/11/22 10:20:50;;;;;;;8.85;6.63;;;7.50;79.40;;;;;;4952705;29;20024;-73
2023/11/22 10:23:24;;;;;;;8.88;6.70;;;7.50;79.50;;;;;;4952716;29;20059;-73
2023/11/22 10:25:53;;;;;;;8.77;6.15;;;7.50;79.40;;;;;;4952224;29;20070;-73
2023/11/22 10:28:21;;;;;;;8.43;6.35;;;7.50;79.40;;;;;;4948414;29;20031;-73
2023/11/22 10:30:48;;;;;;;9.55;6.72;;;7.60;79.50;;;;;;4931308;29;20492;-73
2023/11/22 10:33:22;;;;;;;8.50;6.63;;;7.60;79.40;;;;;;4943888;29;20016;-74
2023/11/22 10:35:53;;;;;;;8.68;6.25;;;7.60;79.50;;;;;;4940120;29;20028;-75
2023/11/22 10:38:20;;;;;;;8.07;6.25;;;7.60;79.40;;;;;;4947912;28;20115;-73
2023/11/22 10:40:47;;;;;;;9.27;6.95;;;7.60;79.40;;;;;;4948379;29;20059;-72
2023/11/22 10:43:15;;;;;;;8.68;6.05;;;7.60;79.40;;;;;;4956104;29;20042;-73
2023/11/22 10:45:46;;;;;;;8.95;6.63;;;7.70;79.50;;;;;;4956774;28;20110;-73
2023/11/22 10:48:15;;;;;;;8.23;6.32;;;7.70;79.50;;;;;;4953433;29;20023;-73
2023/11/22 10:50:44;;;;;;;8.38;6.43;;;7.80;79.50;;;;;;4940420;29;20063;-73
2023/11/22 10:53:15;;;;;;;8.15;6.22;;;7.70;79.40;;;;;;4953569;29;20035;-73
2023/11/22 10:55:57;;;;;;;8.05;6.05;;;7.80;79.50;;;;;;4953014;29;20023;-73
2023/11/22 10:58:25;;;;;;;7.88;5.95;;;7.80;79.50;;;;;;4955016;29;20121;-74
2023/11/22 11:00:51;;;;;;;7.65;5.78;;;7.80;79.40;;;;;;4939318;29;20412;-73
2023/11/22 11:03:22;;;;;;;8.30;6.32;;;7.90;79.50;;;;;;4936605;29;20027;-76
2023/11/22 11:05:57;;;;;;;7.60;5.72;;;7.90;79.50;;;;;;4954717;29;20128;-73
2023/11/22 11:08:27;;;;;;;8.80;6.43;;;7.90;79.50;;;;;;4950668;29;20015;-73
2023/11/22 11:10:55;;;;;;;8.20;6.22;;;7.90;79.50;;;;;;4953067;29;20059;-73
2023/11/22 11:13:23;;;;;;;7.45;5.93;;;7.90;79.40;;;;;;4939596;29;20438;-73
2023/11/22 11:15:50;;;;;;;9.00;6.60;;;8.00;79.60;;;;;;4955929;29;20031;-74
2023/11/22 11:18:17;;;;;;;7.68;6.00;;;8.00;79.50;;;;;;4956576;28;20122;-73
2023/11/22 11:20:54;;;;;;;8.07;5.82;;;8.00;79.50;;;;;;4956585;29;20035;-73
2023/11/22 11:23:24;;;;;;;8.15;6.00;;;8.00;79.60;;;;;;4954492;29;20066;-74
2023/11/22 11:25:56;;;;;;;7.50;5.80;;;8.10;79.50;;;;;;4956045;28;20054;-74
2023/11/22 11:28:26;;;;;;;6.97;5.30;;;8.10;79.60;;;;;;4949256;29;20027;-73
2023/11/22 11:30:53;;;;;;;8.07;5.93;;;8.10;79.50;;;;;;4949042;29;20039;-73
2023/11/22 11:33:33;;;;;;;7.65;5.50;;;8.10;79.50;;;;;;4943108;29;20032;-73
2023/11/22 11:36:03;;;;;;;7.05;5.40;;;8.10;79.60;;;;;;4948441;29;20031;-75
2023/11/22 11:38:35;;;;;;;7.40;5.25;;;8.20;79.60;;;;;;4949160;29;20035;-73
2023/11/22 11:41:12;;;;;;;7.63;5.25;;;8.20;79.60;;;;;;4952867;29;20502;-74
2023/11/22 11:43:46;;;;;;;7.78;5.95;;;8.20;79.60;;;;;;4950135;29;20035;-74
2023/11/22 11:46:13;;;;;;;7.65;5.78;;;8.20;79.60;;;;;;4955948;29;20027;-73
2023/11/22 11:48:52;;;;;;;8.05;5.75;;;8.30;79.60;;;;;;4952806;28;20031;-74
2023/11/22 11:51:21;;;;;;;7.95;5.93;;;8.30;79.60;;;;;;4950905;28;20078;-73
2023/11/22 11:53:47;;;;;;;7.88;6.15;;;8.30;79.60;;;;;;4955640;29;20062;-73
2023/11/22 11:56:13;;;;;;;7.40;5.53;;;8.30;79.60;;;;;;4949493;29;20055;-74
2023/11/22 11:58:44;;;;;;;7.38;5.72;;;8.30;79.60;;;;;;4952179;29;20035;-73
2023/11/22 12:01:16;;;;;;;7.97;5.97;;;8.40;79.70;;;;;;4947092;29;20105;-73
2023/11/22 12:03:43;;;;;;;7.97;5.93;;;8.40;79.70;;;;;;4936719;29;20034;-75
2023/11/22 12:06:09;;;;;;;7.63;5.80;;;8.40;79.70;;;;;;4953591;29;20031;-74
2023/11/22 12:08:38;;;;;;;8.85;6.25;;;8.40;79.60;;;;;;4955975;29;20039;-75
2023/11/22 12:11:07;;;;;;;8.40;6.40;;;8.40;79.60;;;;;;4952034;29;20051;-74
2023/11/22 12:13:34;;;;;;;8.45;6.45;;;8.40;79.60;;;;;;4920612;29;20106;-74
2023/11/22 12:16:03;;;;;;;8.23;6.15;;;8.50;79.70;;;;;;4940035;29;20026;-74
2023/11/22 12:18:31;;;;;;;8.13;6.43;;;8.50;79.70;;;;;;4954706;29;20054;-74
2023/11/22 12:20:58;;;;;;;7.18;5.57;;;8.50;79.70;;;;;;4954028;29;20511;-75
2023/11/22 12:23:28;;;;;;;8.30;6.22;;;8.50;79.70;;;;;;4956134;29;20050;-74
2023/11/22 12:25:56;;;;;;;7.55;5.78;;;8.50;79.70;;;;;;4955249;29;20027;-74
2023/11/22 12:28:29;;;;;;;8.23;6.25;;;8.60;79.70;;;;;;4936245;29;20111;-73
2023/11/22 12:31:05;;;;;;;7.82;6.32;;;8.60;79.70;;;;;;4954032;29;20031;-74
2023/11/22 12:33:31;;;;;;;8.00;5.95;;;8.60;79.70;;;;;;4939653;29;20118;-73
2023/11/22 12:35:57;;;;;;;7.47;5.88;;;8.60;79.60;;;;;;4953802;29;20465;-74
2023/11/22 12:38:26;;;;;;;8.27;6.28;;;8.60;79.60;;;;;;4955469;29;20039;-74
2023/11/22 12:40:51;;;;;;;7.95;5.95;;;8.60;79.60;;;;;;4954491;29;20070;-74
2023/11/22 12:43:17;;;;;;;8.48;6.35;;;8.60;79.60;;;;;;4953826;29;20512;-74
2023/11/22 12:45:45;;;;;;;8.32;5.72;;;8.70;79.70;;;;;;4935300;29;20122;-74
2023/11/22 12:48:24;;;;;;;8.60;6.20;;;8.70;79.70;;;;;;4953187;29;20043;-74
2023/11/22 12:50:52;;;;;;;7.65;5.97;;;8.70;79.70;;;;;;4953669;29;20039;-74
2023/11/22 12:53:21;;;;;;;8.13;6.03;;;8.70;79.60;;;;;;4953429;29;20031;-73
2023/11/22 12:55:49;;;;;;;9.18;6.30;;;8.70;79.60;;;;;;4935153;29;20040;-75
2023/11/22 12:58:16;;;;;;;8.70;5.78;;;8.70;79.60;;;;;;4953825;29;20042;-75